sensor_id;sensor_type;location;lat;lon;timestamp;P1;durP1;ratioP1;P2;durP2;ratioP2
12369;SDS011;6249;52.128;9.986;2023-06-22T00:06:26;15.03;;;11.47;;
12369;SDS011;6249;52.128;9.986;2023-06-22T00:16:30;17.07;;;12.27;;
12369;SDS011;6249;52.128;9.986;2023-06-22T00:26:36;21.77;;;12.30;;
12369;SDS011;6249;52.128;9.986;2023-06-22T00:36:36;18.10;;;13.83;;
12369;SDS011;6249;52.128;9.986;2023-06-22T00:46:37;18.30;;;13.33;;
12369;SDS011;6249;52.128;9.986;2023-06-22T00:56:37;16.17;;;12.40;;
12369;SDS011;6249;52.128;9.986;2023-06-22T01:06:40;15.07;;;11.87;;
12369;SDS011;6249;52.128;9.986;2023-06-22T01:16:53;16.70;;;11.77;;
12369;SDS011;6249;52.128;9.986;2023-06-22T01:27:05;16.10;;;12.10;;
12369;SDS011;6249;52.128;9.986;2023-06-22T01:37:26;22.80;;;12.87;;
12369;SDS011;6249;52.128;9.986;2023-06-22T01:47:28;23.27;;;13.37;;
12369;SDS011;6249;52.128;9.986;2023-06-22T01:57:29;25.20;;;13.67;;
12369;SDS011;6249;52.128;9.986;2023-06-22T02:07:32;19.97;;;13.60;;
12369;SDS011;6249;52.128;9.986;2023-06-22T02:17:39;22.43;;;13.57;;
12369;SDS011;6249;52.128;9.986;2023-06-22T02:27:45;22.83;;;15.33;;
12369;SDS011;6249;52.128;9.986;2023-06-22T02:37:45;25.43;;;15.53;;
12369;SDS011;6249;52.128;9.986;2023-06-22T02:47:46;20.93;;;14.03;;
12369;SDS011;6249;52.128;9.986;2023-06-22T02:57:50;18.53;;;13.53;;
12369;SDS011;6249;52.128;9.986;2023-06-22T03:07:53;20.47;;;14.07;;
12369;SDS011;6249;52.128;9.986;2023-06-22T03:17:56;19.90;;;13.23;;
12369;SDS011;6249;52.128;9.986;2023-06-22T03:27:56;35.83;;;13.03;;
12369;SDS011;6249;52.128;9.986;2023-06-22T03:38:00;26.63;;;13.80;;
12369;SDS011;6249;52.128;9.986;2023-06-22T03:48:05;26.33;;;14.60;;
12369;SDS011;6249;52.128;9.986;2023-06-22T03:58:09;24.50;;;14.93;;
12369;SDS011;6249;52.128;9.986;2023-06-22T04:08:09;23.57;;;14.27;;
12369;SDS011;6249;52.128;9.986;2023-06-22T04:18:10;25.57;;;14.50;;
12369;SDS011;6249;52.128;9.986;2023-06-22T04:28:13;19.77;;;14.37;;
12369;SDS011;6249;52.128;9.986;2023-06-22T04:38:16;25.70;;;16.33;;
12369;SDS011;6249;52.128;9.986;2023-06-22T04:48:21;21.63;;;15.40;;
12369;SDS011;6249;52.128;9.986;2023-06-22T04:58:22;22.10;;;14.60;;
12369;SDS011;6249;52.128;9.986;2023-06-22T05:08:22;24.37;;;15.40;;
12369;SDS011;6249;52.128;9.986;2023-06-22T05:18:27;20.30;;;15.10;;
12369;SDS011;6249;52.128;9.986;2023-06-22T05:28:30;20.93;;;15.47;;
12369;SDS011;6249;52.128;9.986;2023-06-22T05:38:36;25.77;;;15.67;;
12369;SDS011;6249;52.128;9.986;2023-06-22T05:48:39;28.23;;;16.23;;
12369;SDS011;6249;52.128;9.986;2023-06-22T05:58:40;28.97;;;16.60;;
12369;SDS011;6249;52.128;9.986;2023-06-22T06:08:43;29.90;;;15.90;;
12369;SDS011;6249;52.128;9.986;2023-06-22T06:18:43;27.13;;;15.50;;
12369;SDS011;6249;52.128;9.986;2023-06-22T06:28:44;22.27;;;12.60;;
12369;SDS011;6249;52.128;9.986;2023-06-22T06:38:45;22.17;;;13.87;;
12369;SDS011;6249;52.128;9.986;2023-06-22T06:48:48;17.60;;;14.23;;
12369;SDS011;6249;52.128;9.986;2023-06-22T06:58:49;21.13;;;13.60;;
12369;SDS011;6249;52.128;9.986;2023-06-22T07:08:51;17.87;;;14.67;;
12369;SDS011;6249;52.128;9.986;2023-06-22T07:18:51;20.77;;;14.67;;
12369;SDS011;6249;52.128;9.986;2023-06-22T07:28:52;16.37;;;12.50;;
12369;SDS011;6249;52.128;9.986;2023-06-22T07:38:52;19.53;;;12.90;;
12369;SDS011;6249;52.128;9.986;2023-06-22T07:48:53;19.33;;;13.30;;
12369;SDS011;6249;52.128;9.986;2023-06-22T07:58:55;15.40;;;12.33;;
12369;SDS011;6249;52.128;9.986;2023-06-22T08:08:58;23.00;;;13.17;;
12369;SDS011;6249;52.128;9.986;2023-06-22T08:19:01;16.40;;;12.50;;
12369;SDS011;6249;52.128;9.986;2023-06-22T08:29:01;21.60;;;12.77;;
12369;SDS011;6249;52.128;9.986;2023-06-22T08:39:03;14.33;;;11.50;;
12369;SDS011;6249;52.128;9.986;2023-06-22T08:49:04;18.27;;;12.00;;
12369;SDS011;6249;52.128;9.986;2023-06-22T08:59:04;14.73;;;10.30;;
12369;SDS011;6249;52.128;9.986;2023-06-22T09:09:07;19.00;;;11.70;;
12369;SDS011;6249;52.128;9.986;2023-06-22T09:19:11;18.73;;;10.43;;
12369;SDS011;6249;52.128;9.986;2023-06-22T09:29:12;14.77;;;10.70;;
12369;SDS011;6249;52.128;9.986;2023-06-22T09:39:12;13.97;;;10.50;;
12369;SDS011;6249;52.128;9.986;2023-06-22T09:49:13;14.20;;;10.73;;
12369;SDS011;6249;52.128;9.986;2023-06-22T09:59:16;15.20;;;10.50;;
12369;SDS011;6249;52.128;9.986;2023-06-22T10:09:17;14.73;;;12.80;;
12369;SDS011;6249;52.128;9.986;2023-06-22T10:19:17;13.87;;;11.43;;
12369;SDS011;6249;52.128;9.986;2023-06-22T10:29:20;16.53;;;11.00;;
12369;SDS011;6249;52.128;9.986;2023-06-22T10:39:23;18.33;;;10.43;;
12369;SDS011;6249;52.128;9.986;2023-06-22T10:49:24;21.00;;;14.93;;
12369;SDS011;6249;52.128;9.986;2023-06-22T10:59:30;20.17;;;14.10;;
12369;SDS011;6249;52.128;9.986;2023-06-22T11:09:33;15.93;;;14.03;;
12369;SDS011;6249;52.128;9.986;2023-06-22T11:19:36;14.40;;;12.90;;
12369;SDS011;6249;52.128;9.986;2023-06-22T11:29:36;13.30;;;10.57;;
12369;SDS011;6249;52.128;9.986;2023-06-22T11:39:39;15.60;;;12.03;;
12369;SDS011;6249;52.128;9.986;2023-06-22T11:49:40;13.23;;;11.03;;
12369;SDS011;6249;52.128;9.986;2023-06-22T11:59:41;12.23;;;10.80;;
12369;SDS011;6249;52.128;9.986;2023-06-22T12:09:42;11.13;;;10.03;;
12369;SDS011;6249;52.128;9.986;2023-06-22T12:19:48;12.63;;;10.80;;
12369;SDS011;6249;52.128;9.986;2023-06-22T12:29:49;12.20;;;10.70;;
12369;SDS011;6249;52.128;9.986;2023-06-22T12:39:50;13.77;;;11.03;;
12369;SDS011;6249;52.128;9.986;2023-06-22T12:49:51;10.30;;;8.63;;
12369;SDS011;6249;52.128;9.986;2023-06-22T12:59:51;10.77;;;8.73;;
12369;SDS011;6249;52.128;9.986;2023-06-22T13:09:54;11.73;;;9.30;;
12369;SDS011;6249;52.128;9.986;2023-06-22T13:19:54;10.83;;;9.57;;
12369;SDS011;6249;52.128;9.986;2023-06-22T13:29:57;20.50;;;11.23;;
12369;SDS011;6249;52.128;9.986;2023-06-22T13:40:03;13.90;;;10.70;;
12369;SDS011;6249;52.128;9.986;2023-06-22T13:50:06;16.00;;;11.47;;
12369;SDS011;6249;52.128;9.986;2023-06-22T14:00:10;17.10;;;12.40;;
12369;SDS011;6249;52.128;9.986;2023-06-22T14:10:12;17.93;;;12.90;;
12369;SDS011;6249;52.128;9.986;2023-06-22T14:20:13;18.77;;;14.50;;
12369;SDS011;6249;52.128;9.986;2023-06-22T14:30:16;14.83;;;13.03;;
12369;SDS011;6249;52.128;9.986;2023-06-22T14:40:16;17.77;;;12.50;;
12369;SDS011;6249;52.128;9.986;2023-06-22T14:50:22;18.13;;;12.73;;
12369;SDS011;6249;52.128;9.986;2023-06-22T15:00:22;16.80;;;12.40;;
12369;SDS011;6249;52.128;9.986;2023-06-22T15:10:23;13.98;;;11.60;;
12369;SDS011;6249;52.128;9.986;2023-06-22T15:20:26;14.37;;;12.20;;
12369;SDS011;6249;52.128;9.986;2023-06-22T15:30:27;15.33;;;11.93;;
12369;SDS011;6249;52.128;9.986;2023-06-22T15:40:28;21.07;;;15.67;;
12369;SDS011;6249;52.128;9.986;2023-06-22T15:50:28;62.40;;;29.17;;
12369;SDS011;6249;52.128;9.986;2023-06-22T16:00:29;24.70;;;13.30;;
12369;SDS011;6249;52.128;9.986;2023-06-22T16:10:29;31.57;;;15.00;;
12369;SDS011;6249;52.128;9.986;2023-06-22T16:20:30;9.23;;;4.80;;
12369;SDS011;6249;52.128;9.986;2023-06-22T16:30:35;6.83;;;4.43;;
12369;SDS011;6249;52.128;9.986;2023-06-22T16:40:36;26.43;;;20.90;;
12369;SDS011;6249;52.128;9.986;2023-06-22T16:50:36;57.77;;;42.00;;
12369;SDS011;6249;52.128;9.986;2023-06-22T17:00:39;50.60;;;35.67;;
12369;SDS011;6249;52.128;9.986;2023-06-22T17:10:43;43.50;;;35.00;;
12369;SDS011;6249;52.128;9.986;2023-06-22T17:20:44;43.87;;;32.77;;
12369;SDS011;6249;52.128;9.986;2023-06-22T17:30:44;49.07;;;31.10;;
12369;SDS011;6249;52.128;9.986;2023-06-22T17:40:45;42.20;;;29.83;;
12369;SDS011;6249;52.128;9.986;2023-06-22T17:50:46;43.75;;;33.10;;
12369;SDS011;6249;52.128;9.986;2023-06-22T18:00:47;52.10;;;37.23;;
12369;SDS011;6249;52.128;9.986;2023-06-22T18:10:50;60.03;;;43.87;;
12369;SDS011;6249;52.128;9.986;2023-06-22T18:20:53;117.37;;;54.63;;
12369;SDS011;6249;52.128;9.986;2023-06-22T18:30:55;70.67;;;39.40;;
12369;SDS011;6249;52.128;9.986;2023-06-22T18:40:57;43.67;;;30.50;;
12369;SDS011;6249;52.128;9.986;2023-06-22T18:51:10;74.57;;;39.17;;
12369;SDS011;6249;52.128;9.986;2023-06-22T19:01:15;51.13;;;29.63;;
12369;SDS011;6249;52.128;9.986;2023-06-22T19:11:16;133.40;;;61.10;;
12369;SDS011;6249;52.128;9.986;2023-06-22T19:21:29;196.00;;;62.90;;
12369;SDS011;6249;52.128;9.986;2023-06-22T19:31:29;123.17;;;46.07;;
12369;SDS011;6249;52.128;9.986;2023-06-22T19:41:30;34.03;;;20.77;;
12369;SDS011;6249;52.128;9.986;2023-06-22T19:51:34;13.87;;;9.40;;
12369;SDS011;6249;52.128;9.986;2023-06-22T20:01:36;14.83;;;8.40;;
12369;SDS011;6249;52.128;9.986;2023-06-22T20:11:39;8.83;;;6.37;;
12369;SDS011;6249;52.128;9.986;2023-06-22T20:21:40;15.10;;;8.97;;
12369;SDS011;6249;52.128;9.986;2023-06-22T20:31:44;14.03;;;8.20;;
12369;SDS011;6249;52.128;9.986;2023-06-22T20:41:45;18.83;;;9.83;;
12369;SDS011;6249;52.128;9.986;2023-06-22T20:51:45;11.27;;;6.70;;
12369;SDS011;6249;52.128;9.986;2023-06-22T21:01:46;8.87;;;5.97;;
12369;SDS011;6249;52.128;9.986;2023-06-22T21:11:49;15.63;;;4.97;;
12369;SDS011;6249;52.128;9.986;2023-06-22T21:21:49;7.50;;;4.00;;
12369;SDS011;6249;52.128;9.986;2023-06-22T21:31:52;9.00;;;5.13;;
12369;SDS011;6249;52.128;9.986;2023-06-22T21:41:55;12.77;;;4.80;;
12369;SDS011;6249;52.128;9.986;2023-06-22T21:51:56;10.47;;;4.47;;
12369;SDS011;6249;52.128;9.986;2023-06-22T22:01:56;17.30;;;4.80;;
12369;SDS011;6249;52.128;9.986;2023-06-22T22:11:57;9.25;;;5.35;;
12369;SDS011;6249;52.128;9.986;2023-06-22T22:21:57;9.00;;;5.23;;
12369;SDS011;6249;52.128;9.986;2023-06-22T22:31:58;13.27;;;7.60;;
12369;SDS011;6249;52.128;9.986;2023-06-22T22:41:59;10.80;;;6.03;;
12369;SDS011;6249;52.128;9.986;2023-06-22T22:52:00;11.23;;;5.60;;
12369;SDS011;6249;52.128;9.986;2023-06-22T23:02:04;11.93;;;3.97;;
12369;SDS011;6249;52.128;9.986;2023-06-22T23:12:07;9.90;;;3.30;;
12369;SDS011;6249;52.128;9.986;2023-06-22T23:22:11;6.83;;;3.20;;
12369;SDS011;6249;52.128;9.986;2023-06-22T23:32:14;4.27;;;2.73;;
12369;SDS011;6249;52.128;9.986;2023-06-22T23:42:15;6.80;;;3.40;;
12369;SDS011;6249;52.128;9.986;2023-06-22T23:52:18;6.90;;;2.30;;
